createdAt,value
2018-09-13T00:02:03.842Z,53.63
2018-09-13T00:04:31.945Z,52.95
2018-09-13T00:07:00.074Z,53.39
2018-09-13T00:09:28.162Z,54.04
2018-09-13T00:12:02.609Z,54.32
2018-09-13T00:14:30.728Z,54.55
2018-09-13T00:16:59.242Z,54.21
2018-09-13T00:19:27.792Z,54.74
2018-09-13T00:21:56.134Z,54.63
2018-09-13T00:24:26.845Z,54.36
2018-09-13T00:26:56.569Z,53.78
2018-09-13T00:29:24.952Z,55.10
2018-09-13T00:31:53.195Z,55.07
2018-09-13T00:34:21.871Z,55.92
2018-09-13T00:36:50.084Z,54.92
2018-09-13T00:39:18.665Z,55.61
2018-09-13T00:41:46.785Z,55.96
2018-09-13T00:44:15.349Z,55.76
2018-09-13T00:46:43.537Z,55.89
2018-09-13T00:49:11.742Z,55.81
2018-09-13T00:51:40.051Z,56.33
2018-09-13T00:54:08.263Z,56.61
2018-09-13T00:56:36.682Z,55.92
2018-09-13T00:59:04.972Z,55.99
2018-09-13T01:01:33.078Z,56.24
2018-09-13T01:04:01.194Z,56.01
2018-09-13T01:06:29.512Z,56.83
2018-09-13T01:08:57.862Z,57.32
2018-09-13T01:11:25.981Z,57.16
2018-09-13T01:13:55.144Z,57.47
2018-09-13T01:16:24.348Z,56.90
2018-09-13T01:18:53.038Z,57.33
2018-09-13T01:21:21.882Z,57.49
2018-09-13T01:23:50.020Z,57.58
2018-09-13T01:26:18.168Z,57.95
2018-09-13T01:28:46.344Z,57.64
2018-09-13T01:31:17.574Z,58.02
2018-09-13T01:33:45.670Z,61.07
2018-09-13T01:36:13.742Z,61.44
2018-09-13T01:38:41.938Z,62.72
2018-09-13T01:41:10.059Z,62.50
2018-09-13T01:43:38.260Z,62.75
2018-09-13T01:46:08.048Z,63.03
2018-09-13T01:48:37.147Z,62.53
2018-09-13T01:51:05.523Z,63.90
2018-09-13T01:53:33.642Z,62.22
2018-09-13T01:56:01.702Z,62.95
2018-09-13T01:58:29.815Z,63.65
2018-09-13T02:00:58.105Z,64.24
2018-09-13T02:03:27.060Z,63.84
2018-09-13T02:05:56.636Z,63.71
2018-09-13T02:08:26.276Z,63.78
2018-09-13T02:15:48.605Z,63.79
2018-09-13T02:18:17.719Z,64.88
2018-09-13T02:20:46.946Z,65.06
2018-09-13T02:23:17.479Z,64.28
2018-09-13T02:25:50.657Z,64.09
2018-09-13T02:28:18.794Z,64.34
2018-09-13T02:30:51.576Z,64.65
2018-09-13T02:33:19.756Z,64.75
2018-09-13T02:35:49.173Z,65.26
2018-09-13T02:38:18.420Z,65.39
2018-09-13T02:40:46.674Z,65.36
2018-09-13T02:43:14.808Z,65.60
2018-09-13T02:45:42.891Z,64.95
2018-09-13T02:48:11.128Z,65.67
2018-09-13T02:50:40.651Z,65.96
2018-09-13T02:53:11.130Z,65.66
2018-09-13T02:55:39.326Z,66.29
2018-09-13T02:58:10.161Z,65.89
2018-09-13T03:00:38.914Z,66.27
2018-09-13T03:03:07.733Z,66.39
2018-09-13T03:05:35.936Z,66.38
2018-09-13T03:08:05.459Z,66.25
2018-09-13T03:10:33.589Z,66.29
2018-09-13T03:13:03.620Z,65.88
2018-09-13T03:15:31.922Z,65.97
2018-09-13T03:18:01.179Z,66.49
2018-09-13T03:20:29.294Z,66.76
2018-09-13T03:22:58.170Z,66.86
2018-09-13T03:25:27.458Z,67.33
2018-09-13T03:27:55.917Z,66.56
2018-09-13T03:30:25.379Z,67.15
2018-09-13T03:32:53.815Z,67.43
2018-09-13T03:35:21.883Z,66.91
2018-09-13T03:37:50.036Z,67.35
2018-09-13T03:40:18.118Z,67.28
2018-09-13T03:42:47.534Z,67.65
2018-09-13T03:45:15.638Z,67.63
2018-09-13T03:47:44.186Z,67.08
2018-09-13T03:50:12.630Z,67.69
2018-09-13T03:52:40.924Z,67.96
2018-09-13T03:55:09.065Z,67.32
2018-09-13T03:57:37.180Z,67.54
2018-09-13T04:00:05.641Z,67.28
2018-09-13T04:02:36.012Z,67.25
2018-09-13T04:05:04.107Z,67.73
2018-09-13T04:07:32.266Z,68.14
2018-09-13T04:10:00.467Z,67.58
2018-09-13T04:12:29.669Z,67.67
2018-09-13T04:14:57.810Z,68.05
2018-09-13T04:17:26.444Z,67.30
2018-09-13T04:19:54.960Z,67.30
2018-09-13T04:22:23.530Z,68.03
2018-09-13T04:24:51.639Z,67.90
2018-09-13T04:27:19.789Z,67.71
2018-09-13T04:29:48.137Z,68.60
2018-09-13T04:32:16.467Z,67.75
2018-09-13T04:34:44.603Z,68.20
2018-09-13T04:37:12.807Z,68.70
2018-09-13T04:39:40.939Z,68.33
2018-09-13T04:42:09.204Z,68.64
2018-09-13T04:44:38.476Z,68.51
2018-09-13T04:47:06.550Z,69.77
2018-09-13T04:49:36.080Z,69.15
2018-09-13T04:52:05.158Z,68.56
2018-09-13T04:54:33.405Z,69.03
2018-09-13T04:57:01.565Z,68.43
2018-09-13T04:59:29.777Z,68.69
2018-09-13T05:01:57.899Z,69.62
2018-09-13T05:04:26.148Z,69.10
2018-09-13T05:06:56.312Z,68.97
2018-09-13T05:09:24.674Z,69.32
2018-09-13T05:11:53.108Z,69.08
2018-09-13T05:14:21.398Z,69.12
2018-09-13T05:16:50.414Z,68.37
2018-09-13T05:19:19.063Z,68.89
2018-09-13T05:21:47.376Z,68.52
2018-09-13T05:24:15.857Z,69.36
2018-09-13T05:26:44.032Z,68.81
2018-09-13T05:29:13.483Z,69.35
2018-09-13T05:31:41.750Z,68.45
2018-09-13T05:34:10.895Z,69.30
2018-09-13T05:36:39.175Z,68.39
2018-09-13T05:39:10.915Z,69.24
2018-09-13T05:41:39.544Z,69.30
2018-09-13T05:44:08.237Z,69.00
2018-09-13T05:46:36.382Z,69.31
2018-09-13T05:49:04.731Z,68.79
2018-09-13T05:51:32.942Z,68.42
2018-09-13T05:54:01.570Z,68.06
2018-09-13T05:56:29.894Z,68.22
2018-09-13T05:58:58.123Z,68.95
2018-09-13T06:01:27.385Z,70.44
2018-09-13T06:04:38.266Z,69.00
2018-09-13T06:07:06.726Z,68.83
2018-09-13T06:09:35.033Z,68.61
2018-09-13T06:12:03.188Z,68.30
2018-09-13T06:14:31.856Z,67.97
2018-09-13T06:17:00.173Z,68.74
2018-09-13T06:19:28.347Z,68.24
2018-09-13T06:21:56.617Z,68.35
2018-09-13T06:24:26.457Z,67.37
2018-09-13T06:26:54.631Z,68.22
2018-09-13T06:29:22.843Z,68.29
2018-09-13T06:31:50.990Z,68.69
2018-09-13T06:34:19.154Z,67.69
2018-09-13T06:36:47.307Z,67.95
2018-09-13T06:39:15.451Z,67.72
2018-09-13T06:41:43.657Z,66.97
2018-09-13T06:44:19.051Z,67.14
2018-09-13T06:46:58.916Z,67.84
2018-09-13T06:49:30.181Z,67.92
2018-09-13T06:51:59.824Z,67.22
2018-09-13T06:54:29.188Z,67.47
2018-09-13T06:56:57.627Z,67.58
2018-09-13T06:59:26.788Z,66.32
2018-09-13T07:01:55.440Z,66.69
2018-09-13T07:04:24.379Z,64.87
2018-09-13T07:06:52.667Z,64.84
2018-09-13T07:09:20.922Z,65.32
2018-09-13T07:11:49.036Z,65.01
2018-09-13T07:14:17.295Z,66.01
2018-09-13T07:16:46.846Z,66.17
2018-09-13T07:19:16.764Z,65.65
2018-09-13T07:21:45.581Z,65.86
2018-09-13T07:24:14.542Z,65.55
2018-09-13T07:26:42.623Z,65.39
2018-09-13T07:29:11.227Z,64.69
2018-09-13T07:31:39.585Z,65.53
2018-09-13T07:34:10.626Z,64.73
2018-09-13T07:36:38.875Z,63.86
2018-09-13T07:39:09.838Z,63.41
2018-09-13T07:41:38.203Z,62.76
2018-09-13T07:44:06.806Z,64.29
2018-09-13T07:46:35.108Z,63.47
2018-09-13T07:49:04.161Z,64.40
2018-09-13T07:51:33.084Z,63.84
2018-09-13T07:54:01.344Z,64.46
2018-09-13T07:56:32.217Z,63.65
2018-09-13T07:59:00.411Z,63.75
2018-09-13T08:01:29.935Z,63.35
2018-09-13T08:03:58.108Z,63.01
2018-09-13T08:11:19.823Z,61.36
2018-09-13T08:13:49.602Z,60.89
2018-09-13T08:16:17.980Z,59.37
2018-09-13T08:18:46.555Z,59.75
2018-09-13T08:21:14.998Z,59.74
2018-09-13T08:23:44.612Z,59.93
2018-09-13T08:26:12.894Z,59.97
2018-09-13T08:28:41.941Z,60.46
2018-09-13T08:31:10.086Z,59.74
2018-09-13T08:33:38.260Z,60.65
2018-09-13T08:36:06.450Z,60.17
2018-09-13T08:38:35.731Z,60.25
2018-09-13T08:41:03.847Z,59.55
2018-09-13T08:43:32.238Z,59.74
2018-09-13T08:46:00.791Z,59.38
2018-09-13T08:48:28.731Z,59.25
2018-09-13T08:50:57.668Z,58.49
2018-09-13T08:53:25.838Z,58.54
2018-09-13T08:55:54.591Z,59.52
2018-09-13T08:58:22.905Z,59.06
2018-09-13T09:00:51.110Z,58.96
2018-09-13T09:03:19.208Z,58.66
2018-09-13T09:05:47.336Z,59.07
2018-09-13T09:08:15.460Z,58.86
2018-09-13T09:10:43.937Z,58.76
2018-09-13T09:13:12.895Z,58.38
2018-09-13T09:15:41.975Z,58.23
2018-09-13T09:18:12.379Z,57.80
2018-09-13T09:20:40.618Z,56.62
2018-09-13T09:23:08.849Z,56.85
2018-09-13T09:25:37.757Z,55.86
2018-09-13T09:28:05.886Z,55.72
2018-09-13T09:30:34.016Z,55.90
2018-09-13T09:33:02.178Z,56.47
2018-09-13T09:35:36.799Z,57.41
2018-09-13T09:38:06.015Z,58.12
2018-09-13T09:40:36.332Z,58.84
2018-09-13T09:43:05.548Z,57.50
2018-09-13T09:45:34.072Z,58.42
2018-09-13T09:48:02.182Z,58.61
2018-09-13T09:50:30.341Z,58.34
2018-09-13T09:52:58.462Z,57.14
2018-09-13T09:55:27.688Z,56.79
2018-09-13T09:57:55.848Z,56.93
2018-09-13T10:00:28.995Z,56.54
2018-09-13T10:02:57.681Z,56.97
2018-09-13T10:05:26.549Z,55.57
2018-09-13T10:07:55.494Z,56.23
2018-09-13T10:10:24.595Z,55.88
2018-09-13T10:12:52.699Z,57.00
2018-09-13T10:15:26.088Z,55.92
2018-09-13T10:17:59.856Z,55.83
2018-09-13T10:20:38.147Z,55.59
2018-09-13T10:23:12.442Z,56.95
2018-09-13T10:25:46.060Z,56.65
2018-09-13T10:28:19.599Z,55.64
2018-09-13T10:30:52.963Z,55.83
2018-09-13T10:33:26.428Z,55.30
2018-09-13T10:36:00.149Z,55.76
2018-09-13T10:43:42.441Z,55.37
2018-09-13T10:46:15.999Z,53.88
2018-09-13T10:48:49.327Z,53.70
2018-09-13T10:51:21.664Z,53.87
2018-09-13T10:53:54.850Z,52.17
2018-09-13T10:56:24.209Z,51.65
2018-09-13T10:58:52.414Z,51.80
2018-09-13T11:01:21.003Z,52.47
2018-09-13T11:03:49.284Z,51.01
2018-09-13T11:06:20.116Z,51.27
2018-09-13T11:08:48.737Z,51.84
2018-09-13T11:11:18.029Z,51.90
2018-09-13T11:13:51.599Z,52.05
2018-09-13T11:16:20.520Z,51.65
2018-09-13T11:18:50.037Z,51.50
2018-09-13T11:21:18.613Z,50.43
2018-09-13T11:23:48.011Z,50.63
2018-09-13T11:26:17.246Z,50.26
2018-09-13T11:28:47.239Z,50.77
2018-09-13T11:31:15.660Z,51.35
2018-09-13T11:33:43.867Z,51.18
2018-09-13T11:36:13.694Z,50.34
2018-09-13T11:38:42.318Z,48.86
2018-09-13T11:41:11.101Z,48.64
2018-09-13T11:43:40.897Z,49.70
2018-09-13T11:46:09.635Z,50.76
2018-09-13T11:48:37.751Z,50.23
2018-09-13T11:51:06.572Z,49.58
2018-09-13T11:53:34.968Z,50.63
2018-09-13T11:56:03.143Z,50.86
2018-09-13T11:58:31.271Z,51.02
2018-09-13T12:00:59.413Z,51.27
2018-09-13T12:03:28.659Z,50.85
2018-09-13T12:05:57.179Z,51.30
2018-09-13T12:08:25.328Z,50.81
2018-09-13T12:10:53.478Z,52.01
2018-09-13T12:13:21.982Z,51.54
2018-09-13T12:15:50.357Z,50.56
2018-09-13T12:18:18.754Z,49.87
2018-09-13T12:20:47.366Z,49.84
2018-09-13T12:23:15.670Z,48.57
2018-09-13T12:25:44.854Z,47.45
2018-09-13T12:28:12.979Z,47.38
2018-09-13T12:30:41.169Z,48.32
2018-09-13T12:33:09.281Z,49.75
2018-09-13T12:35:37.473Z,49.60
2018-09-13T12:38:05.831Z,49.94
2018-09-13T12:40:35.030Z,51.18
2018-09-13T12:43:03.259Z,50.78
2018-09-13T12:45:32.529Z,51.93
2018-09-13T12:48:00.764Z,50.14
2018-09-13T12:50:29.576Z,49.86
2018-09-13T12:52:58.649Z,50.65
2018-09-13T12:55:31.961Z,51.18
2018-09-13T12:58:00.120Z,49.44
2018-09-13T13:00:28.471Z,47.65
2018-09-13T13:02:56.779Z,48.97
2018-09-13T13:05:24.927Z,49.07
2018-09-13T13:07:53.334Z,48.95
2018-09-13T13:10:21.921Z,49.97
2018-09-13T13:12:50.238Z,49.93
2018-09-13T13:15:19.096Z,49.40
2018-09-13T13:17:47.291Z,49.00
2018-09-13T13:20:15.568Z,48.15
2018-09-13T13:22:43.983Z,48.02
2018-09-13T13:25:12.198Z,48.61
2018-09-13T13:27:40.405Z,49.02
2018-09-13T13:30:08.718Z,48.26
2018-09-13T13:32:37.581Z,47.89
2018-09-13T13:35:05.746Z,47.50
2018-09-13T13:37:33.996Z,46.26
2018-09-13T13:40:02.450Z,47.10
2018-09-13T13:42:31.449Z,47.71
2018-09-13T13:44:59.678Z,49.95
2018-09-13T13:47:28.923Z,50.43
2018-09-13T13:49:57.421Z,50.73
2018-09-13T13:52:26.030Z,51.51
2018-09-13T13:54:54.284Z,51.02
2018-09-13T13:57:22.553Z,51.44
2018-09-13T13:59:51.570Z,51.30
2018-09-13T14:02:19.981Z,52.09
2018-09-13T14:04:49.481Z,52.01
2018-09-13T14:07:17.843Z,52.75
2018-09-13T14:09:46.085Z,52.88
2018-09-13T14:12:14.348Z,52.95
2018-09-13T14:14:44.825Z,53.40
2018-09-13T14:17:13.126Z,53.39
2018-09-13T14:19:41.275Z,54.74
2018-09-13T14:22:09.476Z,52.99
2018-09-13T14:24:38.082Z,53.69
2018-09-13T14:27:06.561Z,53.22
2018-09-13T14:29:35.096Z,53.12
2018-09-13T14:32:03.447Z,51.01
2018-09-13T14:34:38.518Z,50.44
2018-09-13T14:37:07.211Z,50.34
2018-09-13T14:39:35.692Z,51.59
2018-09-13T14:42:04.748Z,52.74
2018-09-13T14:44:33.185Z,53.99
2018-09-13T14:47:01.550Z,53.69
2018-09-13T14:49:30.291Z,53.57
2018-09-13T14:51:59.563Z,53.64
2018-09-13T14:54:28.274Z,54.95
2018-09-13T14:56:57.544Z,54.37
2018-09-13T14:59:25.692Z,55.11
2018-09-13T15:01:54.094Z,55.07
2018-09-13T15:04:23.473Z,55.78
2018-09-13T15:06:52.618Z,56.05
2018-09-13T15:09:20.965Z,56.08
2018-09-13T15:11:49.710Z,56.87
2018-09-13T15:14:18.286Z,57.17
2018-09-13T15:16:46.578Z,56.78
2018-09-13T15:19:16.230Z,57.40
2018-09-13T15:21:45.506Z,57.51
2018-09-13T15:24:13.924Z,57.83
2018-09-13T15:26:42.202Z,58.68
2018-09-13T15:29:12.190Z,58.42
2018-09-13T15:31:40.350Z,58.89
2018-09-13T15:34:09.613Z,57.97
2018-09-13T15:36:37.722Z,57.61
2018-09-13T15:39:08.886Z,58.81
2018-09-13T15:41:37.370Z,59.33
2018-09-13T15:44:05.848Z,59.15
2018-09-13T15:46:34.400Z,58.91
2018-09-13T15:49:02.902Z,59.32
2018-09-13T15:51:32.418Z,59.03
2018-09-13T15:54:02.164Z,59.85
2018-09-13T15:56:31.064Z,59.10
2018-09-13T15:59:00.746Z,61.37
2018-09-13T16:01:29.474Z,61.28
2018-09-13T16:03:58.967Z,61.36
2018-09-13T16:06:28.243Z,61.22
2018-09-13T16:08:59.694Z,61.07
2018-09-13T16:11:29.985Z,62.01
2018-09-13T16:13:58.128Z,61.04
2018-09-13T16:16:28.185Z,61.02
2018-09-13T16:18:56.632Z,60.48
2018-09-13T16:21:26.852Z,60.81
2018-09-13T16:23:55.211Z,60.90
2018-09-13T16:26:23.600Z,61.09
2018-09-13T16:28:52.641Z,60.96
2018-09-13T16:31:20.919Z,62.14
2018-09-13T16:33:49.159Z,61.84
2018-09-13T16:36:23.741Z,61.88
2018-09-13T16:39:07.062Z,61.42
2018-09-13T16:41:54.932Z,61.44
2018-09-13T16:44:56.318Z,61.56
2018-09-13T16:47:31.480Z,61.57
2018-09-13T16:50:02.671Z,62.13
2018-09-13T16:52:31.629Z,61.33
2018-09-13T16:55:00.884Z,62.55
2018-09-13T16:57:30.587Z,62.63
2018-09-13T17:00:00.597Z,62.83
2018-09-13T17:02:30.911Z,62.17
2018-09-13T17:04:59.738Z,62.42
2018-09-13T17:07:28.558Z,62.57
2018-09-13T17:09:56.704Z,62.12
2018-09-13T17:12:25.524Z,62.72
2018-09-13T17:14:53.621Z,63.18
2018-09-13T17:17:22.278Z,62.77
2018-09-13T17:19:51.287Z,63.47
2018-09-13T17:22:19.857Z,63.45
2018-09-13T17:24:48.039Z,63.76
2018-09-13T17:27:18.095Z,63.94
2018-09-13T17:32:22.443Z,64.32
2018-09-13T17:34:50.573Z,65.69
2018-09-13T17:37:18.741Z,64.65
2018-09-13T17:39:47.240Z,64.64
2018-09-13T17:42:15.426Z,64.55
2018-09-13T17:44:43.578Z,65.20
2018-09-13T17:47:12.314Z,66.11
2018-09-13T17:49:40.444Z,66.03
2018-09-13T17:52:08.656Z,65.92
2018-09-13T17:54:36.789Z,65.12
2018-09-13T17:57:04.894Z,65.40
2018-09-13T17:59:33.127Z,65.62
2018-09-13T18:02:01.932Z,65.84
2018-09-13T18:04:30.791Z,66.04
2018-09-13T18:07:01.776Z,66.25
2018-09-13T18:09:30.293Z,66.83
2018-09-13T18:12:00.051Z,66.49
2018-09-13T18:14:28.562Z,66.55
2018-09-13T18:19:22.150Z,66.97
2018-09-13T18:21:50.283Z,67.18
2018-09-13T18:24:18.483Z,66.96
2018-09-13T18:26:48.105Z,66.99
2018-09-13T18:29:16.512Z,67.14
2018-09-13T18:31:44.756Z,67.21
2018-09-13T18:34:13.530Z,67.60
2018-09-13T18:36:41.883Z,67.16
2018-09-13T18:39:11.846Z,67.73
2018-09-13T18:41:40.439Z,67.02
2018-09-13T18:44:08.577Z,66.65
2018-09-13T18:46:37.132Z,66.98
2018-09-13T18:49:05.367Z,67.40
2018-09-13T18:51:33.568Z,66.79
2018-09-13T18:54:01.888Z,66.92
2018-09-13T19:01:27.995Z,66.85
2018-09-13T19:03:57.171Z,67.42
2018-09-13T19:06:25.304Z,67.45
2018-09-13T19:08:53.539Z,67.69
2018-09-13T19:11:22.421Z,67.77
2018-09-13T19:13:50.557Z,68.19
2018-09-13T19:16:19.147Z,69.62
2018-09-13T19:18:47.765Z,69.53
2018-09-13T19:21:16.146Z,69.59
2018-09-13T19:23:44.798Z,69.29
2018-09-13T19:26:13.485Z,68.91
2018-09-13T19:28:41.675Z,68.70
2018-09-13T19:31:11.582Z,69.50
2018-09-13T19:33:39.670Z,69.56
2018-09-13T19:36:08.355Z,69.30
2018-09-13T19:38:37.237Z,70.22
2018-09-13T19:41:06.502Z,70.89
2018-09-13T19:43:34.703Z,69.43
2018-09-13T19:46:03.229Z,69.91
2018-09-13T19:48:31.486Z,70.16
2018-09-13T19:51:01.815Z,70.39
2018-09-13T19:53:32.336Z,70.75
2018-09-13T19:56:01.484Z,70.87
2018-09-13T19:58:30.398Z,70.67
2018-09-13T20:00:58.976Z,70.68
2018-09-13T20:03:27.370Z,70.71
2018-09-13T20:05:55.727Z,70.55
2018-09-13T20:08:23.946Z,70.67
2018-09-13T20:10:52.186Z,70.25
2018-09-13T20:13:20.342Z,70.76
2018-09-13T20:15:49.296Z,70.08
2018-09-13T20:18:18.673Z,70.11
2018-09-13T20:20:46.657Z,70.13
2018-09-13T20:23:14.867Z,70.68
2018-09-13T20:25:42.991Z,71.14
2018-09-13T20:28:11.334Z,70.40
2018-09-13T20:30:40.745Z,70.19
2018-09-13T20:33:08.996Z,69.99
2018-09-13T20:35:37.047Z,70.45
2018-09-13T20:38:05.140Z,70.82
2018-09-13T20:40:33.594Z,71.03
2018-09-13T20:43:01.720Z,71.52
2018-09-13T20:45:30.623Z,71.81
2018-09-13T20:47:58.766Z,72.33
2018-09-13T20:50:27.278Z,70.95
2018-09-13T20:52:55.667Z,71.98
2018-09-13T20:55:24.795Z,73.97
2018-09-13T20:57:53.111Z,73.26
2018-09-13T21:00:21.330Z,74.23
2018-09-13T21:02:50.994Z,74.00
2018-09-13T21:05:19.732Z,72.86
2018-09-13T21:07:48.345Z,72.85
2018-09-13T21:10:16.584Z,72.77
2018-09-13T21:12:45.274Z,73.22
2018-09-13T21:15:13.453Z,72.10
2018-09-13T21:17:41.927Z,72.14
2018-09-13T21:20:10.060Z,72.05
2018-09-13T21:22:38.287Z,71.85
2018-09-13T21:25:06.388Z,72.60
2018-09-13T21:27:35.582Z,72.31
2018-09-13T21:30:03.715Z,72.55
2018-09-13T21:34:56.560Z,72.70
2018-09-13T21:37:25.116Z,72.73
2018-09-13T21:39:53.229Z,73.41
2018-09-13T21:42:21.355Z,73.09
2018-09-13T21:44:49.475Z,74.44
2018-09-13T21:47:17.891Z,73.78
2018-09-13T21:49:46.505Z,73.79
2018-09-13T21:52:14.798Z,73.92
2018-09-13T21:54:42.910Z,74.50
2018-09-13T21:57:11.567Z,73.89
2018-09-13T21:59:39.723Z,74.21
2018-09-13T22:02:08.048Z,73.76
2018-09-13T22:04:36.205Z,73.54
2018-09-13T22:07:04.360Z,73.15
2018-09-13T22:09:32.537Z,73.57
2018-09-13T22:12:00.954Z,73.97
2018-09-13T22:14:29.364Z,74.12
2018-09-13T22:17:02.875Z,74.79
2018-09-13T22:19:31.141Z,73.33
2018-09-13T22:21:59.482Z,73.98
2018-09-13T22:24:27.785Z,74.37
2018-09-13T22:26:55.967Z,74.19
2018-09-13T22:29:24.166Z,73.97
2018-09-13T22:31:53.809Z,73.82
2018-09-13T22:34:22.023Z,73.28
2018-09-13T22:36:50.333Z,74.89
2018-09-13T22:39:19.576Z,74.12
2018-09-13T22:41:47.671Z,73.56
2018-09-13T22:44:15.775Z,73.68
2018-09-13T22:46:44.948Z,74.30
2018-09-13T22:49:13.117Z,73.51
2018-09-13T22:51:41.433Z,73.88
2018-09-13T22:54:09.555Z,73.92
2018-09-13T22:56:38.423Z,73.52
2018-09-13T22:59:06.530Z,75.50
2018-09-13T23:01:35.250Z,75.35
2018-09-13T23:04:04.274Z,74.95
2018-09-13T23:06:32.524Z,75.45
2018-09-13T23:09:02.863Z,75.97
2018-09-13T23:11:31.290Z,76.23
2018-09-13T23:14:00.052Z,75.19
2018-09-13T23:16:29.101Z,75.87
2018-09-13T23:18:57.323Z,76.35
2018-09-13T23:21:25.637Z,75.59
2018-09-13T23:23:54.328Z,75.67
2018-09-13T23:26:22.505Z,74.62
2018-09-13T23:28:51.392Z,75.21
2018-09-13T23:31:19.483Z,75.23
2018-09-13T23:33:48.142Z,75.88
2018-09-13T23:36:16.332Z,75.53
2018-09-13T23:38:44.436Z,75.44
2018-09-13T23:41:12.533Z,75.28
2018-09-13T23:43:40.632Z,75.36
2018-09-13T23:46:09.394Z,75.88
2018-09-13T23:48:37.493Z,75.81
2018-09-13T23:51:05.959Z,76.40
2018-09-13T23:53:36.534Z,76.42
2018-09-13T23:56:05.095Z,76.11
2018-09-13T23:58:33.381Z,76.37
